createdAt,value
2023-04-22T00:00:22.252Z,0.00
2023-04-22T00:01:22.603Z,0.00
2023-04-22T00:02:22.259Z,0.00
2023-04-22T00:03:22.535Z,0.00
2023-04-22T00:04:22.397Z,0.00
2023-04-22T00:05:22.209Z,0.00
2023-04-22T00:06:22.531Z,0.00
2023-04-22T00:07:22.160Z,0.00
2023-04-22T00:08:22.160Z,0.00
2023-04-22T00:09:22.159Z,0.00
2023-04-22T00:10:22.132Z,0.00
2023-04-22T00:11:22.461Z,0.00
2023-04-22T00:12:22.108Z,0.00
2023-04-22T00:13:22.103Z,0.00
2023-04-22T00:14:22.094Z,0.00
2023-04-22T00:15:22.078Z,0.00
2023-04-22T00:16:22.503Z,0.00
2023-04-22T00:18:47.539Z,0.00
2023-04-22T00:18:53.051Z,0.00
2023-04-22T00:19:53.061Z,0.00
2023-04-22T00:20:53.068Z,0.00
2023-04-22T00:21:53.007Z,0.00
2023-04-22T00:22:53.008Z,0.00
2023-04-22T00:23:52.991Z,0.00
2023-04-22T00:24:52.988Z,0.00
2023-04-22T00:25:53.310Z,0.00
2023-04-22T00:26:52.976Z,0.00
2023-04-22T00:27:52.955Z,0.00
2023-04-22T00:28:52.993Z,0.00
2023-04-22T00:29:52.926Z,0.00
2023-04-22T00:30:53.309Z,0.00
2023-04-22T00:31:53.007Z,0.00
2023-04-22T00:32:52.957Z,0.00
2023-04-22T00:33:52.889Z,0.00
2023-04-22T00:34:52.880Z,0.00
2023-04-22T00:35:53.246Z,0.00
2023-04-22T00:36:52.864Z,0.00
2023-04-22T00:37:52.843Z,0.00
2023-04-22T00:38:52.835Z,0.00
2023-04-22T00:39:52.819Z,0.00
2023-04-22T00:40:53.252Z,0.00
2023-04-22T00:41:52.804Z,0.00
2023-04-22T00:42:52.807Z,0.00
2023-04-22T00:43:52.788Z,0.00
2023-04-22T00:44:52.772Z,0.00
2023-04-22T00:45:53.424Z,0.00
2023-04-22T00:46:52.869Z,0.00
2023-04-22T00:47:52.795Z,0.00
2023-04-22T00:48:52.740Z,0.00
2023-04-22T00:49:52.719Z,0.00
2023-04-22T00:50:53.473Z,0.00
2023-04-22T00:51:52.698Z,0.00
2023-04-22T00:52:52.695Z,0.00
2023-04-22T00:53:52.678Z,0.00
2023-04-22T00:54:52.674Z,0.00
2023-04-22T00:55:53.340Z,0.00
2023-04-22T00:56:52.686Z,0.00
2023-04-22T00:57:52.654Z,0.00
2023-04-22T00:58:52.633Z,0.00
2023-04-22T00:59:52.623Z,0.00
2023-04-22T01:00:52.897Z,0.00
2023-04-22T01:01:52.684Z,0.00
2023-04-22T01:02:52.701Z,0.00
2023-04-22T01:03:53.151Z,0.00
2023-04-22T01:04:52.572Z,0.00
2023-04-22T01:05:53.310Z,0.00
2023-04-22T01:06:52.561Z,0.00
2023-04-22T01:07:52.538Z,0.00
2023-04-22T01:08:52.533Z,0.00
2023-04-22T01:09:52.522Z,0.00
2023-04-22T01:10:53.345Z,0.00
2023-04-22T01:11:52.495Z,0.00
2023-04-22T01:12:52.503Z,0.00
2023-04-22T01:13:52.474Z,0.00
2023-04-22T01:14:52.475Z,0.00
2023-04-22T01:15:53.058Z,0.00
2023-04-22T01:16:52.473Z,0.00
2023-04-22T01:17:52.507Z,0.00
2023-04-22T01:18:52.431Z,0.00
2023-04-22T01:19:52.418Z,0.00
2023-04-22T01:20:53.103Z,0.00
2023-04-22T01:21:52.400Z,0.00
2023-04-22T01:22:52.393Z,0.00
2023-04-22T01:23:52.376Z,0.00
2023-04-22T01:24:52.375Z,0.00
2023-04-22T01:25:53.142Z,0.00
2023-04-22T01:26:52.349Z,0.00
2023-04-22T01:27:52.334Z,0.00
2023-04-22T01:28:52.328Z,0.00
2023-04-22T01:29:52.329Z,0.00
2023-04-22T01:30:53.293Z,0.00
2023-04-22T01:31:52.362Z,0.00
2023-04-22T01:32:52.374Z,0.00
2023-04-22T01:33:52.276Z,0.00
2023-04-22T01:34:52.266Z,0.00
2023-04-22T01:35:52.565Z,0.00
2023-04-22T01:36:52.241Z,0.00
2023-04-22T01:37:52.235Z,0.00
2023-04-22T01:38:52.221Z,0.00
2023-04-22T01:39:52.210Z,0.00
2023-04-22T01:40:52.467Z,0.00
2023-04-22T01:41:52.188Z,0.00
2023-04-22T01:42:52.202Z,0.00
2023-04-22T01:43:52.159Z,0.00
2023-04-22T01:44:52.160Z,0.00
2023-04-22T01:45:52.483Z,0.00
2023-04-22T01:46:52.137Z,0.00
2023-04-22T01:47:52.168Z,0.00
2023-04-22T01:48:52.145Z,0.00
2023-04-22T01:49:52.102Z,0.00
2023-04-22T01:50:52.359Z,0.00
2023-04-22T01:51:52.080Z,0.00
2023-04-22T01:52:52.078Z,0.00
2023-04-22T01:53:52.065Z,0.00
2023-04-22T01:54:52.057Z,0.00
2023-04-22T01:55:52.509Z,0.00
2023-04-22T01:56:52.025Z,0.00
2023-04-22T01:57:52.018Z,0.00
2023-04-22T01:58:52.014Z,0.00
2023-04-22T01:59:51.996Z,0.00
2023-04-22T02:00:52.354Z,0.00
2023-04-22T02:01:52.062Z,0.00
2023-04-22T02:02:52.037Z,0.00
2023-04-22T02:03:52.071Z,0.00
2023-04-22T02:04:52.031Z,0.00
2023-04-22T02:05:52.350Z,0.00
2023-04-22T02:06:51.931Z,0.00
2023-04-22T02:07:51.911Z,0.00
2023-04-22T02:08:51.912Z,0.00
2023-04-22T02:09:51.890Z,0.00
2023-04-22T02:10:52.206Z,0.00
2023-04-22T02:11:51.867Z,0.00
2023-04-22T02:12:51.868Z,0.00
2023-04-22T02:13:51.849Z,0.00
2023-04-22T02:14:51.849Z,0.00
2023-04-22T02:15:51.891Z,0.00
2023-04-22T02:16:52.201Z,0.00
2023-04-22T02:17:51.811Z,0.00
2023-04-22T02:18:51.805Z,0.00
2023-04-22T02:19:51.839Z,0.00
2023-04-22T02:20:51.782Z,0.00
2023-04-22T02:21:52.088Z,0.00
2023-04-22T02:22:51.758Z,0.00
2023-04-22T02:23:51.746Z,0.00
2023-04-22T02:24:51.745Z,0.00
2023-04-22T02:25:51.730Z,0.00
2023-04-22T02:26:51.733Z,0.00
2023-04-22T02:27:51.709Z,0.00
2023-04-22T02:28:51.701Z,0.00
2023-04-22T02:29:51.691Z,0.00
2023-04-22T02:30:51.681Z,0.00
2023-04-22T02:31:52.098Z,0.00
2023-04-22T02:32:51.742Z,0.00
2023-04-22T02:33:51.653Z,0.00
2023-04-22T02:34:51.660Z,0.00
2023-04-22T02:35:51.627Z,0.00
2023-04-22T02:36:52.021Z,0.00
2023-04-22T02:37:51.607Z,0.00
2023-04-22T02:38:51.605Z,0.00
2023-04-22T02:39:51.579Z,0.00
2023-04-22T02:40:51.582Z,0.00
2023-04-22T02:41:51.914Z,0.00
2023-04-22T02:42:51.570Z,0.00
2023-04-22T02:43:51.555Z,0.00
2023-04-22T02:44:51.552Z,0.00
2023-04-22T02:45:51.523Z,0.00
2023-04-22T02:46:51.912Z,0.00
2023-04-22T02:47:51.535Z,0.00
2023-04-22T02:48:51.498Z,0.00
2023-04-22T02:49:51.485Z,0.00
2023-04-22T02:50:51.480Z,0.00
2023-04-22T02:51:51.801Z,0.00
2023-04-22T02:52:51.479Z,0.00
2023-04-22T02:53:51.439Z,0.00
2023-04-22T02:54:51.434Z,0.00
2023-04-22T02:55:51.437Z,0.00
2023-04-22T02:56:51.440Z,0.00
2023-04-22T02:57:51.407Z,0.00
2023-04-22T02:58:51.409Z,0.00
2023-04-22T02:59:51.384Z,0.00
2023-04-22T03:00:51.408Z,0.00
2023-04-22T03:01:51.730Z,0.00
2023-04-22T03:02:51.566Z,0.00
2023-04-22T03:03:51.506Z,0.00
2023-04-22T03:04:51.337Z,0.00
2023-04-22T03:05:51.314Z,0.00
2023-04-22T03:06:51.603Z,0.00
2023-04-22T03:07:51.307Z,0.00
2023-04-22T03:08:51.303Z,0.00
2023-04-22T03:09:51.293Z,0.00
2023-04-22T03:10:51.281Z,0.00
2023-04-22T03:11:51.793Z,0.00
2023-04-22T03:12:51.256Z,0.00
2023-04-22T03:13:51.259Z,0.00
2023-04-22T03:14:51.244Z,0.00
2023-04-22T03:15:51.230Z,0.00
2023-04-22T03:16:51.685Z,0.00
2023-04-22T03:17:51.282Z,0.00
2023-04-22T03:18:51.210Z,0.00
2023-04-22T03:19:51.195Z,0.00
2023-04-22T03:20:51.177Z,0.00
2023-04-22T03:21:51.529Z,0.00
2023-04-22T03:22:51.170Z,0.00
2023-04-22T03:23:51.153Z,0.00
2023-04-22T03:24:51.152Z,0.00
2023-04-22T03:25:51.140Z,0.00
2023-04-22T03:26:51.537Z,0.00
2023-04-22T03:27:51.136Z,0.00
2023-04-22T03:28:51.134Z,0.00
2023-04-22T03:29:51.053Z,1.00
2023-04-22T03:30:51.096Z,0.00
2023-04-22T03:31:51.428Z,0.00
2023-04-22T03:32:51.120Z,0.00
2023-04-22T03:33:51.082Z,0.00
2023-04-22T03:34:51.068Z,0.00
2023-04-22T03:35:51.056Z,0.00
2023-04-22T03:36:51.353Z,1.00
2023-04-22T03:37:51.006Z,1.00
2023-04-22T03:38:50.979Z,1.00
2023-04-22T03:39:51.030Z,0.00
2023-04-22T03:40:51.725Z,0.00
2023-04-22T03:41:51.316Z,0.00
2023-04-22T03:42:50.996Z,0.00
2023-04-22T03:43:50.997Z,0.00
2023-04-22T03:44:50.970Z,0.00
2023-04-22T03:45:50.963Z,1.00
2023-04-22T03:46:51.272Z,0.00
2023-04-22T03:47:50.965Z,2.00
2023-04-22T03:48:50.886Z,2.00
2023-04-22T03:49:50.877Z,3.00
2023-04-22T03:50:50.860Z,2.00
2023-04-22T03:51:51.196Z,1.00
2023-04-22T03:52:50.850Z,1.00
2023-04-22T03:53:50.842Z,1.00
2023-04-22T03:54:50.831Z,2.00
2023-04-22T03:55:50.819Z,2.00
2023-04-22T03:56:51.367Z,2.00
2023-04-22T03:57:50.808Z,4.00
2023-04-22T03:58:50.806Z,4.00
2023-04-22T03:59:50.789Z,4.00
2023-04-22T04:00:50.777Z,5.00
2023-04-22T04:01:51.110Z,6.00
2023-04-22T04:02:50.866Z,7.00
2023-04-22T04:03:50.885Z,9.00
2023-04-22T04:04:51.203Z,12.00
2023-04-22T04:05:50.770Z,15.00
2023-04-22T04:06:51.023Z,18.00
2023-04-22T04:07:50.713Z,20.00
2023-04-22T04:08:50.703Z,24.00
2023-04-22T04:09:50.708Z,27.00
2023-04-22T04:10:50.688Z,31.00
2023-04-22T04:11:51.047Z,35.00
2023-04-22T04:12:50.666Z,38.00
2023-04-22T04:13:50.671Z,41.00
2023-04-22T04:14:50.654Z,44.00
2023-04-22T04:15:50.683Z,46.00
2023-04-22T04:16:50.973Z,50.00
2023-04-22T04:17:50.758Z,52.00
2023-04-22T04:18:50.608Z,56.00
2023-04-22T04:19:50.612Z,59.00
2023-04-22T04:20:50.597Z,63.00
2023-04-22T04:21:50.963Z,68.00
2023-04-22T04:22:50.579Z,74.00
2023-04-22T04:23:50.575Z,85.00
2023-04-22T04:24:50.575Z,103.00
2023-04-22T04:25:50.557Z,120.00
2023-04-22T04:26:50.890Z,139.00
2023-04-22T04:27:50.536Z,158.00
2023-04-22T04:28:50.534Z,182.00
2023-04-22T04:29:50.528Z,211.00
2023-04-22T04:30:50.538Z,227.00
2023-04-22T04:31:50.993Z,231.00
2023-04-22T04:32:50.523Z,238.00
2023-04-22T04:33:50.484Z,254.00
2023-04-22T04:34:50.477Z,280.00
2023-04-22T04:35:50.469Z,306.00
2023-04-22T04:36:50.762Z,330.00
2023-04-22T04:37:50.453Z,349.00
2023-04-22T04:38:50.442Z,367.00
2023-04-22T04:39:50.437Z,373.00
2023-04-22T04:40:50.418Z,389.00
2023-04-22T04:41:50.716Z,405.00
2023-04-22T04:42:50.399Z,423.00
2023-04-22T04:43:50.395Z,440.00
2023-04-22T04:44:50.378Z,450.00
2023-04-22T04:45:50.373Z,463.00
2023-04-22T04:46:50.756Z,480.00
2023-04-22T04:47:50.377Z,494.00
2023-04-22T04:48:50.338Z,504.00
2023-04-22T04:49:50.343Z,514.00
2023-04-22T04:50:50.332Z,535.00
2023-04-22T04:51:50.613Z,550.00
2023-04-22T04:52:50.306Z,571.00
2023-04-22T04:53:50.299Z,594.00
2023-04-22T04:54:50.288Z,612.00
2023-04-22T04:55:50.287Z,648.00
2023-04-22T04:56:50.608Z,688.00
2023-04-22T04:57:50.266Z,741.00
2023-04-22T04:58:50.249Z,797.00
2023-04-22T04:59:50.251Z,851.00
2023-04-22T05:00:50.263Z,935.00
2023-04-22T05:01:50.648Z,1012.00
2023-04-22T05:02:50.313Z,1107.00
2023-04-22T05:03:50.382Z,1192.00
2023-04-22T05:04:50.274Z,1281.00
2023-04-22T05:05:50.205Z,1370.00
2023-04-22T05:06:50.502Z,1458.00
2023-04-22T05:07:50.186Z,1534.00
2023-04-22T05:08:50.170Z,1585.00
2023-04-22T05:09:50.165Z,1640.00
2023-04-22T05:10:50.160Z,1680.00
2023-04-22T05:11:50.405Z,1693.00
2023-04-22T05:12:50.140Z,1698.00
2023-04-22T05:13:50.136Z,1699.00
2023-04-22T05:14:50.121Z,1708.00
2023-04-22T05:15:50.115Z,1723.00
2023-04-22T05:16:50.573Z,1731.00
2023-04-22T05:17:50.151Z,1738.00
2023-04-22T05:18:50.088Z,1747.00
2023-04-22T05:19:50.090Z,1757.00
2023-04-22T05:20:50.085Z,1784.00
2023-04-22T05:21:50.463Z,1798.00
2023-04-22T05:22:50.048Z,1826.00
2023-04-22T05:23:50.040Z,1859.00
2023-04-22T05:24:50.032Z,1888.00
2023-04-22T05:25:52.056Z,1931.00
2023-04-22T05:26:50.348Z,1983.00
2023-04-22T05:27:50.002Z,2011.00
2023-04-22T05:28:49.986Z,2166.00
2023-04-22T05:29:49.984Z,2119.00
2023-04-22T05:30:49.966Z,2165.00
2023-04-22T05:31:50.319Z,2160.00
2023-04-22T05:32:50.034Z,2201.00
2023-04-22T05:33:49.941Z,2215.00
2023-04-22T05:34:49.928Z,2346.00
2023-04-22T05:35:49.916Z,2358.00
2023-04-22T05:36:50.350Z,2516.00
2023-04-22T05:37:49.931Z,2549.00
2023-04-22T05:38:49.895Z,2469.00
2023-04-22T05:39:49.872Z,2571.00
2023-04-22T05:40:49.857Z,2791.00
2023-04-22T05:41:49.855Z,2765.00
2023-04-22T05:42:50.175Z,2780.00
2023-04-22T05:43:49.826Z,2836.00
2023-04-22T05:44:49.827Z,2937.00
2023-04-22T05:45:49.830Z,2979.00
2023-04-22T05:46:49.817Z,3012.00
2023-04-22T05:47:49.833Z,3206.00
2023-04-22T05:48:49.782Z,2995.00
2023-04-22T05:49:49.775Z,3052.00
2023-04-22T05:50:49.757Z,3291.00
2023-04-22T05:51:49.741Z,3220.00
2023-04-22T05:52:50.101Z,3193.00
2023-04-22T05:53:49.762Z,3186.00
2023-04-22T05:54:49.711Z,3197.00
2023-04-22T05:55:49.704Z,3125.00
2023-04-22T05:56:49.693Z,3309.00
2023-04-22T05:57:49.849Z,3339.00
2023-04-22T05:58:49.666Z,3450.00
2023-04-22T05:59:49.665Z,3529.00
2023-04-22T06:00:49.649Z,3677.00
2023-04-22T06:01:49.645Z,3539.00
2023-04-22T06:02:50.514Z,3869.00
2023-04-22T06:03:49.805Z,3921.00
2023-04-22T06:04:49.950Z,4046.00
2023-04-22T06:05:49.692Z,4158.00
2023-04-22T06:06:49.586Z,3970.00
2023-04-22T06:07:49.926Z,4142.00
2023-04-22T06:08:49.567Z,4507.00
2023-04-22T06:09:49.565Z,4093.00
2023-04-22T06:10:49.554Z,4172.00
2023-04-22T06:11:49.545Z,3985.00
2023-04-22T06:12:49.692Z,4254.00
2023-04-22T06:13:49.520Z,4119.00
2023-04-22T06:14:49.508Z,4342.00
2023-04-22T06:15:49.525Z,4221.00
2023-04-22T06:16:49.488Z,4649.00
2023-04-22T06:17:50.335Z,4380.00
2023-04-22T06:18:49.477Z,4463.00
2023-04-22T06:19:49.453Z,4571.00
2023-04-22T06:20:49.438Z,4313.00
2023-04-22T06:21:49.430Z,4265.00
2023-04-22T06:22:49.716Z,4421.00
2023-04-22T06:23:49.406Z,4536.00
2023-04-22T06:24:49.386Z,4577.00
2023-04-22T06:25:49.392Z,4591.00
2023-04-22T06:26:49.363Z,4671.00
2023-04-22T06:27:49.870Z,4573.00
2023-04-22T06:28:49.357Z,4426.00
2023-04-22T06:29:49.336Z,4441.00
2023-04-22T06:30:49.314Z,4850.00
2023-04-22T06:31:49.425Z,4582.00
2023-04-22T06:32:50.082Z,4981.00
2023-04-22T06:33:49.291Z,4890.00
2023-04-22T06:34:49.262Z,5452.00
2023-04-22T06:35:49.271Z,4968.00
2023-04-22T06:36:49.248Z,4957.00
2023-04-22T06:37:49.551Z,3584.00
2023-04-22T06:38:49.220Z,9128.00
2023-04-22T06:39:49.232Z,7532.00
2023-04-22T06:40:49.207Z,5460.00
2023-04-22T06:41:49.201Z,3986.00
2023-04-22T06:42:49.584Z,5220.00
2023-04-22T06:43:49.169Z,8053.00
2023-04-22T06:44:49.153Z,9414.00
2023-04-22T06:45:49.145Z,8096.00
2023-04-22T06:46:49.195Z,7381.00
2023-04-22T06:47:49.993Z,5904.00
2023-04-22T06:48:49.103Z,5990.00
2023-04-22T06:49:49.101Z,6028.00
2023-04-22T06:50:49.098Z,5889.00
2023-04-22T06:51:49.089Z,5642.00
2023-04-22T06:52:49.409Z,6584.00
2023-04-22T06:53:49.057Z,6186.00
2023-04-22T06:54:49.047Z,5367.00
2023-04-22T06:55:49.037Z,6836.00
2023-04-22T06:56:49.027Z,7559.00
2023-04-22T06:57:49.328Z,7116.00
2023-04-22T06:58:49.012Z,5951.00
2023-04-22T06:59:49.000Z,5478.00
2023-04-22T07:00:48.985Z,5244.00
2023-04-22T07:01:49.038Z,5578.00
2023-04-22T07:02:49.762Z,5533.00
2023-04-22T07:03:49.033Z,5655.00
2023-04-22T07:04:48.957Z,6062.00
2023-04-22T07:05:48.930Z,7734.00
2023-04-22T07:06:48.926Z,5654.00
2023-04-22T07:07:49.303Z,5369.00
2023-04-22T07:08:48.894Z,4256.00
2023-04-22T07:09:48.898Z,15093.00
2023-04-22T07:10:48.883Z,14799.00
2023-04-22T07:11:48.866Z,9550.00
2023-04-22T07:12:49.191Z,8434.00
2023-04-22T07:13:48.849Z,10240.00
2023-04-22T07:14:48.837Z,9078.00
2023-04-22T07:15:48.826Z,12615.00
2023-04-22T07:16:48.992Z,10711.00
2023-04-22T07:17:49.584Z,8398.00
2023-04-22T07:18:48.791Z,6887.00
2023-04-22T07:19:48.789Z,6326.00
2023-04-22T07:20:48.770Z,6165.00
2023-04-22T07:21:48.766Z,5668.00
2023-04-22T07:22:49.231Z,5425.00
2023-04-22T07:23:48.778Z,5243.00
2023-04-22T07:24:48.726Z,4939.00
2023-04-22T07:25:48.722Z,5060.00
2023-04-22T07:26:48.709Z,4674.00
2023-04-22T07:27:49.132Z,4594.00
2023-04-22T07:28:48.688Z,4528.00
2023-04-22T07:29:48.692Z,4447.00
2023-04-22T07:30:48.698Z,4464.00
2023-04-22T07:31:48.688Z,4356.00
2023-04-22T07:32:49.293Z,4338.00
2023-04-22T07:33:48.644Z,4300.00
2023-04-22T07:34:48.620Z,4508.00
2023-04-22T07:35:48.634Z,4280.00
2023-04-22T07:36:48.602Z,3972.00
2023-04-22T07:37:48.851Z,4083.00
2023-04-22T07:38:48.586Z,4207.00
2023-04-22T07:39:48.576Z,4206.00
2023-04-22T07:40:48.568Z,4216.00
2023-04-22T07:41:48.557Z,4314.00
2023-04-22T07:42:48.899Z,4064.00
2023-04-22T07:43:48.535Z,4265.00
2023-04-22T07:44:48.527Z,4227.00
2023-04-22T07:45:48.523Z,4171.00
2023-04-22T07:46:48.507Z,4293.00
2023-04-22T07:47:48.824Z,4319.00
2023-04-22T07:48:48.485Z,4380.00
2023-04-22T07:49:48.466Z,4477.00
2023-04-22T07:50:48.458Z,4551.00
2023-04-22T07:51:48.448Z,4569.00
2023-04-22T07:52:48.758Z,4704.00
2023-04-22T07:53:48.436Z,4873.00
2023-04-22T07:54:48.423Z,5059.00
2023-04-22T07:55:48.411Z,5276.00
2023-04-22T07:56:48.402Z,5351.00
2023-04-22T07:57:48.753Z,5499.00
2023-04-22T07:58:48.378Z,5576.00
2023-04-22T07:59:48.367Z,5966.00
2023-04-22T08:00:48.441Z,5679.00
2023-04-22T08:01:48.349Z,5407.00
2023-04-22T08:02:48.730Z,5695.00
2023-04-22T08:03:48.646Z,7221.00
2023-04-22T08:04:48.378Z,8738.00
2023-04-22T08:05:48.303Z,9997.00
2023-04-22T08:06:48.306Z,11897.00
2023-04-22T08:07:48.622Z,14612.00
2023-04-22T08:08:48.280Z,14043.00
2023-04-22T08:09:48.268Z,15124.00
2023-04-22T08:10:48.264Z,14610.00
2023-04-22T08:11:48.249Z,8524.00
2023-04-22T08:12:48.571Z,15491.00
2023-04-22T08:13:48.237Z,15428.00
2023-04-22T08:14:48.225Z,17159.00
2023-04-22T08:15:48.289Z,15367.00
2023-04-22T08:16:48.200Z,16321.00
2023-04-22T08:17:48.297Z,16754.00
2023-04-22T08:18:48.177Z,15780.00
2023-04-22T08:19:48.167Z,16782.00
2023-04-22T08:20:48.155Z,16250.00
2023-04-22T08:21:48.146Z,12676.00
2023-04-22T08:22:48.418Z,14893.00
2023-04-22T08:23:48.137Z,15276.00
2023-04-22T08:24:48.129Z,14548.00
2023-04-22T08:25:48.107Z,15010.00
2023-04-22T08:26:48.109Z,11335.00
2023-04-22T08:27:48.571Z,13007.00
2023-04-22T08:28:48.081Z,14365.00
2023-04-22T08:29:48.063Z,13706.00
2023-04-22T08:30:48.051Z,13463.00
2023-04-22T08:31:48.060Z,10958.00
2023-04-22T08:32:48.334Z,12836.00
2023-04-22T08:33:48.017Z,11164.00
2023-04-22T08:34:51.576Z,13419.00
2023-04-22T08:35:47.994Z,13963.00
2023-04-22T08:36:47.994Z,14626.00
2023-04-22T08:37:48.297Z,14213.00
2023-04-22T08:38:50.039Z,14548.00
2023-04-22T08:39:47.954Z,11828.00
2023-04-22T08:40:47.958Z,15078.00
2023-04-22T08:41:47.935Z,16159.00
2023-04-22T08:42:47.950Z,11742.00
2023-04-22T08:43:47.918Z,13596.00
2023-04-22T08:44:47.912Z,16723.00
2023-04-22T08:45:47.892Z,10449.00
2023-04-22T08:46:47.899Z,15276.00
2023-04-22T08:47:48.875Z,10652.00
2023-04-22T08:48:47.861Z,14722.00
2023-04-22T08:49:47.870Z,10801.00
2023-04-22T08:50:47.880Z,10302.00
2023-04-22T08:51:47.835Z,10732.00
2023-04-22T08:52:47.846Z,7861.00
2023-04-22T08:53:47.814Z,10403.00
2023-04-22T08:54:47.808Z,8017.00
2023-04-22T08:55:47.793Z,8249.00
2023-04-22T08:56:47.788Z,6303.00
2023-04-22T08:57:48.125Z,6992.00
2023-04-22T08:58:47.768Z,7865.00
2023-04-22T08:59:47.749Z,7510.00
2023-04-22T09:00:47.738Z,6502.00
2023-04-22T09:01:47.749Z,10545.00
2023-04-22T09:02:48.598Z,7884.00
2023-04-22T09:03:47.769Z,7048.00
2023-04-22T09:04:47.707Z,7799.00
2023-04-22T09:05:47.693Z,9928.00
2023-04-22T09:06:47.681Z,9571.00
2023-04-22T09:07:47.996Z,8075.00
2023-04-22T09:08:47.666Z,12544.00
2023-04-22T09:09:47.647Z,6569.00
2023-04-22T09:10:47.640Z,7562.00
2023-04-22T09:11:47.630Z,11229.00
2023-04-22T09:12:48.005Z,11002.00
2023-04-22T09:13:47.608Z,8582.00
2023-04-22T09:14:47.603Z,10714.00
2023-04-22T09:15:47.592Z,6617.00
2023-04-22T09:16:47.775Z,11624.00
2023-04-22T09:17:47.610Z,8705.00
2023-04-22T09:18:47.659Z,14455.00
2023-04-22T09:19:47.579Z,8486.00
2023-04-22T09:20:47.538Z,6397.00
2023-04-22T09:21:49.892Z,5813.00
2023-04-22T09:22:47.543Z,8350.00
2023-04-22T09:23:47.506Z,8148.00
2023-04-22T09:24:47.497Z,8982.00
2023-04-22T09:25:47.482Z,10141.00
2023-04-22T09:26:47.478Z,9752.00
2023-04-22T09:27:48.110Z,5478.00
2023-04-22T09:28:47.456Z,9611.00
2023-04-22T09:29:47.441Z,7110.00
2023-04-22T09:30:47.447Z,7781.00
2023-04-22T09:31:47.447Z,7801.00
2023-04-22T09:32:48.428Z,7353.00
2023-04-22T09:33:49.551Z,7337.00
2023-04-22T09:34:47.394Z,7208.00
2023-04-22T09:35:47.386Z,6639.00
2023-04-22T09:36:47.375Z,6320.00
2023-04-22T09:37:49.553Z,6809.00
2023-04-22T09:38:47.382Z,7243.00
2023-04-22T09:39:48.664Z,7597.00
2023-04-22T09:40:47.344Z,7967.00
2023-04-22T09:41:47.328Z,7145.00
2023-04-22T09:42:47.333Z,7487.00
2023-04-22T09:43:47.302Z,7236.00
2023-04-22T09:44:47.305Z,7335.00
2023-04-22T09:45:47.312Z,7461.00
2023-04-22T09:46:47.282Z,7263.00
2023-04-22T09:47:47.467Z,7285.00
2023-04-22T09:48:47.280Z,6956.00
2023-04-22T09:49:47.244Z,6231.00
2023-04-22T09:50:47.236Z,6997.00
2023-04-22T09:51:49.343Z,7803.00
2023-04-22T09:52:47.523Z,5720.00
2023-04-22T09:53:47.204Z,7431.00
2023-04-22T09:54:47.196Z,8101.00
2023-04-22T09:55:47.190Z,5844.00
2023-04-22T09:56:47.178Z,6040.00
2023-04-22T09:57:47.518Z,5834.00
2023-04-22T09:58:47.149Z,6251.00
2023-04-22T09:59:47.134Z,6497.00
2023-04-22T10:00:47.128Z,5699.00
2023-04-22T10:01:47.152Z,5539.00
2023-04-22T10:02:47.266Z,6330.00
2023-04-22T10:03:47.108Z,5712.00
2023-04-22T10:04:47.090Z,7078.00
2023-04-22T10:05:47.088Z,5271.00
2023-04-22T10:06:47.148Z,5745.00
2023-04-22T10:07:47.240Z,5358.00
2023-04-22T10:08:47.144Z,5005.00
2023-04-22T10:09:47.118Z,3969.00
2023-04-22T10:10:47.031Z,4833.00
2023-04-22T10:11:47.383Z,4786.00
2023-04-22T10:12:47.021Z,5683.00
2023-04-22T10:13:46.997Z,6107.00
2023-04-22T10:14:46.993Z,6245.00
2023-04-22T10:15:46.977Z,5374.00
2023-04-22T10:16:47.004Z,6329.00
2023-04-22T10:17:47.026Z,5693.00
2023-04-22T10:18:46.952Z,5017.00
2023-04-22T10:19:46.938Z,7017.00
2023-04-22T10:20:46.935Z,7577.00
2023-04-22T10:21:46.920Z,8541.00
2023-04-22T10:22:46.918Z,6126.00
2023-04-22T10:23:46.887Z,4188.00
2023-04-22T10:24:46.900Z,5709.00
2023-04-22T10:25:46.874Z,5505.00
2023-04-22T10:26:46.869Z,3992.00
2023-04-22T10:27:46.856Z,3636.00
2023-04-22T10:28:46.843Z,4515.00
2023-04-22T10:29:46.836Z,3661.00
2023-04-22T10:30:46.863Z,3511.00
2023-04-22T10:31:46.818Z,3812.00
2023-04-22T10:32:46.871Z,4471.00
2023-04-22T10:33:46.783Z,3585.00
2023-04-22T10:34:46.786Z,8274.00
2023-04-22T10:35:46.768Z,1882.00
2023-04-22T10:36:46.759Z,3971.00
2023-04-22T10:37:46.760Z,4486.00
2023-04-22T10:38:46.739Z,4347.00
2023-04-22T10:39:46.729Z,4023.00
2023-04-22T10:40:46.715Z,5882.00
2023-04-22T10:41:46.700Z,5640.00
2023-04-22T10:42:46.711Z,2319.00
2023-04-22T10:43:46.691Z,4941.00
2023-04-22T10:44:46.683Z,5159.00
2023-04-22T10:45:46.659Z,5210.00
2023-04-22T10:46:46.660Z,4779.00
2023-04-22T10:47:46.663Z,7854.00
2023-04-22T10:48:46.640Z,3307.00
2023-04-22T10:49:46.629Z,3415.00
2023-04-22T10:50:46.616Z,4791.00
2023-04-22T10:51:46.612Z,4665.00
2023-04-22T10:52:46.615Z,4811.00
2023-04-22T10:53:46.588Z,9025.00
2023-04-22T10:54:46.585Z,5200.00
2023-04-22T10:55:46.560Z,2087.00
2023-04-22T10:56:51.852Z,4397.00
2023-04-22T10:57:46.939Z,4091.00
2023-04-22T10:58:46.538Z,4964.00
2023-04-22T11:00:53.980Z,4785.00
2023-04-22T11:01:46.522Z,4956.00
2023-04-22T11:02:46.743Z,4681.00
2023-04-22T11:03:46.552Z,8584.00
2023-04-22T11:04:46.494Z,5115.00
2023-04-22T11:05:46.465Z,4330.00
2023-04-22T11:06:46.456Z,5022.00
2023-04-22T11:07:46.782Z,4758.00
2023-04-22T11:08:46.452Z,2084.00
2023-04-22T11:09:46.432Z,7851.00
2023-04-22T11:10:46.482Z,4688.00
2023-04-22T11:11:46.398Z,4369.00
2023-04-22T11:12:46.720Z,2026.00
2023-04-22T11:13:46.377Z,3879.00
2023-04-22T11:14:46.387Z,3936.00
2023-04-22T11:15:46.374Z,5317.00
2023-04-22T11:16:46.444Z,5248.00
2023-04-22T11:17:46.796Z,3202.00
2023-04-22T11:18:46.335Z,4776.00
2023-04-22T11:19:46.318Z,4179.00
2023-04-22T11:20:46.315Z,4559.00
2023-04-22T11:21:46.304Z,4690.00
2023-04-22T11:22:46.816Z,4671.00
2023-04-22T11:23:46.274Z,6362.00
2023-04-22T11:24:46.272Z,4540.00
2023-04-22T11:25:46.262Z,3314.00
2023-04-22T11:26:46.253Z,2953.00
2023-04-22T11:27:46.436Z,4809.00
2023-04-22T11:28:46.232Z,4959.00
2023-04-22T11:29:46.219Z,5683.00
2023-04-22T11:30:46.216Z,5871.00
2023-04-22T11:31:46.229Z,5098.00
2023-04-22T11:32:46.603Z,3997.00
2023-04-22T11:33:47.305Z,5610.00
2023-04-22T11:34:46.171Z,4826.00
2023-04-22T11:35:46.160Z,5139.00
2023-04-22T11:36:46.156Z,5273.00
2023-04-22T11:37:46.156Z,5126.00
2023-04-22T11:38:46.125Z,4914.00
2023-04-22T11:40:01.907Z,5207.00
2023-04-22T11:40:47.228Z,5177.00
2023-04-22T11:41:46.146Z,5277.00
2023-04-22T11:42:46.122Z,5303.00
2023-04-22T11:43:46.149Z,5909.00
2023-04-22T11:44:46.070Z,5907.00
2023-04-22T11:45:46.071Z,6043.00
2023-04-22T11:46:46.056Z,6093.00
2023-04-22T11:47:46.204Z,6355.00
2023-04-22T11:48:46.029Z,6418.00
2023-04-22T11:49:46.014Z,6380.00
2023-04-22T11:50:46.009Z,6512.00
2023-04-22T11:51:46.001Z,5500.00
2023-04-22T11:52:46.016Z,5768.00
2023-04-22T11:53:45.973Z,7012.00
2023-04-22T11:54:45.965Z,6608.00
2023-04-22T11:55:45.972Z,6782.00
2023-04-22T11:56:45.969Z,6732.00
2023-04-22T11:57:45.960Z,4481.00
2023-04-22T11:58:45.920Z,5777.00
2023-04-22T11:59:45.921Z,5847.00
2023-04-22T12:00:45.904Z,5947.00
2023-04-22T12:01:45.895Z,6210.00
2023-04-22T12:02:46.130Z,5871.00
2023-04-22T12:03:46.130Z,5848.00
2023-04-22T12:04:46.198Z,6343.00
2023-04-22T12:05:45.853Z,5216.00
2023-04-22T12:06:45.835Z,5929.00
2023-04-22T12:07:45.833Z,5399.00
2023-04-22T12:08:45.819Z,4814.00
2023-04-22T12:09:46.310Z,5217.00
2023-04-22T12:10:45.798Z,4979.00
2023-04-22T12:11:45.798Z,4476.00
2023-04-22T12:12:45.782Z,5369.00
2023-04-22T12:13:45.776Z,4773.00
2023-04-22T12:14:46.059Z,4421.00
2023-04-22T12:15:45.770Z,4161.00
2023-04-22T12:16:45.834Z,4551.00
2023-04-22T12:17:46.391Z,4779.00
2023-04-22T12:18:45.719Z,4531.00
2023-04-22T12:19:45.717Z,4156.00
2023-04-22T12:20:45.708Z,4432.00
2023-04-22T12:21:45.688Z,4404.00
2023-04-22T12:22:46.046Z,4536.00
2023-04-22T12:23:45.668Z,4739.00
2023-04-22T12:24:45.655Z,4834.00
2023-04-22T12:25:45.655Z,5022.00
2023-04-22T12:26:45.648Z,4476.00
2023-04-22T12:27:45.645Z,6236.00
2023-04-22T12:28:45.631Z,4006.00
2023-04-22T12:29:45.609Z,4907.00